Time;durP1;ratioP1;P1;durP2;ratioP2;P2;SDS_P1;SDS_P2;PMS_P1;PMS_P2;Temp;Humidity;BMP_temperature;BMP_pressure;BME280_temperature;BME280_humidity;BME280_pressure;Samples;Min_cycle;Max_cycle;Signal;HPM_P1;HPM_P2
2021/11/23 00:02:23;;;;;;;19.20;8.90;;;;;;;;;;4998817;28;20252;-69
2021/11/23 00:04:49;;;;;;;17.93;10.00;;;;;;;;;;5010089;28;20198;-69
2021/11/23 00:07:14;;;;;;;21.83;10.10;;;;;;;;;;4995518;28;20594;-70
2021/11/23 00:09:39;;;;;;;20.90;9.83;;;;;;;;;;5013500;28;20198;-70
2021/11/23 00:12:05;;;;;;;15.63;8.77;;;;;;;;;;5001673;28;20633;-70
2021/11/23 00:14:30;;;;;;;17.37;9.70;;;;;;;;;;5005875;28;20225;-70
2021/11/23 00:16:56;;;;;;;17.43;8.47;;;;;;;;;;5001676;28;20187;-70
2021/11/23 00:19:21;;;;;;;15.23;9.17;;;;;;;;;;5007495;28;20662;-70
2021/11/23 00:21:46;;;;;;;16.40;8.47;;;;;;;;;;5000401;28;20274;-70
2021/11/23 00:24:11;;;;;;;16.60;8.30;;;;;;;;;;5005673;28;20187;-70
2021/11/23 00:26:37;;;;;;;18.07;8.50;;;;;;;;;;5009010;28;20202;-70
2021/11/23 00:29:02;;;;;;;17.33;8.20;;;;;;;;;;5005465;28;20183;-70
2021/11/23 00:31:28;;;;;;;16.57;8.43;;;;;;;;;;5018905;28;20190;-70
2021/11/23 00:33:53;;;;;;;20.03;8.57;;;;;;;;;;5000775;28;20183;-70
2021/11/23 00:36:19;;;;;;;15.40;7.87;;;;;;;;;;5009638;28;20214;-70
2021/11/23 00:38:45;;;;;;;18.97;8.47;;;;;;;;;;4995200;28;20183;-70
2021/11/23 00:41:13;;;;;;;16.23;7.20;;;;;;;;;;5007719;28;20186;-70
2021/11/23 00:43:40;;;;;;;17.87;8.07;;;;;;;;;;5000192;28;20186;-70
2021/11/23 00:46:06;;;;;;;18.67;7.93;;;;;;;;;;5008649;28;20253;-70
2021/11/23 00:48:31;;;;;;;15.07;7.40;;;;;;;;;;4996272;28;20564;-70
2021/11/23 00:50:57;;;;;;;13.57;7.57;;;;;;;;;;5007949;28;20190;-70
2021/11/23 00:53:23;;;;;;;17.97;7.67;;;;;;;;;;4997803;28;23832;-70
2021/11/23 00:55:49;;;;;;;20.30;7.57;;;;;;;;;;5008892;28;20267;-71
2021/11/23 00:58:14;;;;;;;16.23;7.00;;;;;;;;;;4995508;28;20212;-71
2021/11/23 01:00:40;;;;;;;21.83;7.70;;;;;;;;;;5010280;28;20642;-70
2021/11/23 01:03:05;;;;;;;15.47;6.90;;;;;;;;;;5004153;28;20187;-70
2021/11/23 01:05:30;;;;;;;18.40;7.30;;;;;;;;;;4997933;28;20600;-70
2021/11/23 01:07:56;;;;;;;14.30;7.27;;;;;;;;;;5004705;28;20202;-70
2021/11/23 01:10:22;;;;;;;24.40;8.30;;;;;;;;;;5004661;28;20187;-70
2021/11/23 01:12:48;;;;;;;15.87;7.13;;;;;;;;;;5003464;28;20285;-70
2021/11/23 01:15:14;;;;;;;20.07;8.13;;;;;;;;;;5006611;28;20190;-71
2021/11/23 01:17:39;;;;;;;14.53;7.10;;;;;;;;;;5005593;28;20248;-71
2021/11/23 01:20:10;;;;;;;16.20;7.13;;;;;;;;;;5000229;28;20505;-71
2021/11/23 01:22:36;;;;;;;17.00;7.03;;;;;;;;;;5005844;28;20187;-71
2021/11/23 01:25:02;;;;;;;15.40;6.93;;;;;;;;;;5003171;28;20218;-71
2021/11/23 01:27:27;;;;;;;19.87;6.57;;;;;;;;;;5010725;28;20289;-71
2021/11/23 01:29:52;;;;;;;14.10;6.73;;;;;;;;;;5009504;28;20193;-71
2021/11/23 01:32:18;;;;;;;13.90;6.70;;;;;;;;;;4993711;28;20310;-71
2021/11/23 01:34:43;;;;;;;13.63;6.70;;;;;;;;;;5005779;28;20190;-71
2021/11/23 01:37:09;;;;;;;18.10;7.37;;;;;;;;;;4995118;28;20191;-71
2021/11/23 01:39:34;;;;;;;17.23;6.70;;;;;;;;;;5008822;28;21116;-71
2021/11/23 01:42:00;;;;;;;11.53;6.83;;;;;;;;;;5004666;28;20232;-71
2021/11/23 01:44:25;;;;;;;14.23;7.30;;;;;;;;;;5007648;28;20221;-71
2021/11/23 01:46:51;;;;;;;20.07;6.80;;;;;;;;;;5002666;28;20207;-71
2021/11/23 01:49:16;;;;;;;12.73;6.83;;;;;;;;;;5002341;28;20191;-71
2021/11/23 01:51:42;;;;;;;16.10;6.80;;;;;;;;;;5003879;28;20671;-71
2021/11/23 01:54:08;;;;;;;16.30;6.33;;;;;;;;;;5000470;28;20722;-71
2021/11/23 01:56:33;;;;;;;22.27;6.90;;;;;;;;;;4998918;28;20349;-71
2021/11/23 01:58:59;;;;;;;15.97;7.07;;;;;;;;;;5003526;28;20184;-72
2021/11/23 02:01:25;;;;;;;12.47;6.80;;;;;;;;;;5006698;28;20270;-72
2021/11/23 02:03:50;;;;;;;14.80;7.00;;;;;;;;;;4996426;28;20659;-72
2021/11/23 02:06:16;;;;;;;13.20;6.77;;;;;;;;;;5007600;28;20234;-72
2021/11/23 02:08:41;;;;;;;17.87;6.40;;;;;;;;;;4994047;28;20515;-72
2021/11/23 02:11:07;;;;;;;19.80;6.80;;;;;;;;;;5002561;28;20214;-72
2021/11/23 02:13:32;;;;;;;16.20;7.00;;;;;;;;;;4992014;28;20211;-72
2021/11/23 02:15:59;;;;;;;10.77;6.80;;;;;;;;;;5006536;28;20187;-72
2021/11/23 02:18:26;;;;;;;11.73;6.87;;;;;;;;;;4993149;28;20179;-72
2021/11/23 02:20:52;;;;;;;12.13;6.67;;;;;;;;;;5004628;28;20565;-72
2021/11/23 02:23:18;;;;;;;18.77;6.43;;;;;;;;;;4997157;28;20182;-72
2021/11/23 02:25:44;;;;;;;13.90;6.33;;;;;;;;;;5000268;28;20187;-72
2021/11/23 02:28:11;;;;;;;14.53;6.43;;;;;;;;;;5000395;28;20217;-72
2021/11/23 02:30:45;;;;;;;13.93;6.80;;;;;;;;;;5007366;28;20269;-72
2021/11/23 02:33:12;;;;;;;14.60;6.10;;;;;;;;;;5000112;28;20186;-72
2021/11/23 02:35:38;;;;;;;19.87;7.10;;;;;;;;;;5007739;28;20201;-72
2021/11/23 02:38:03;;;;;;;16.40;7.40;;;;;;;;;;5003584;28;20178;-72
2021/11/23 02:40:28;;;;;;;16.53;6.40;;;;;;;;;;4996794;28;20187;-72
2021/11/23 02:42:55;;;;;;;15.07;6.23;;;;;;;;;;5003301;28;20648;-72
2021/11/23 02:45:23;;;;;;;16.30;7.07;;;;;;;;;;4994171;28;20185;-72
2021/11/23 02:47:49;;;;;;;14.80;6.33;;;;;;;;;;5009714;28;20265;-72
2021/11/23 02:50:16;;;;;;;17.67;7.27;;;;;;;;;;4999408;28;20514;-72
2021/11/23 02:52:47;;;;;;;18.57;6.63;;;;;;;;;;5007903;28;20192;-72
2021/11/23 02:55:14;;;;;;;21.87;7.27;;;;;;;;;;4999830;28;20701;-72
2021/11/23 02:57:40;;;;;;;16.20;7.07;;;;;;;;;;5014834;28;20190;-72
2021/11/23 03:00:16;;;;;;;13.53;7.10;;;;;;;;;;4999651;28;20233;-72
2021/11/23 03:02:42;;;;;;;21.07;6.93;;;;;;;;;;5001648;28;20183;-72
2021/11/23 03:05:08;;;;;;;16.20;6.93;;;;;;;;;;4999396;28;20266;-72
2021/11/23 03:07:34;;;;;;;22.57;7.70;;;;;;;;;;5016505;28;20276;-72
2021/11/23 03:10:00;;;;;;;22.17;7.07;;;;;;;;;;4997344;28;20270;-72
2021/11/23 03:12:26;;;;;;;15.77;7.87;;;;;;;;;;5013961;28;20274;-72
2021/11/23 03:14:52;;;;;;;16.73;7.77;;;;;;;;;;5009398;28;20194;-73
2021/11/23 03:17:19;;;;;;;16.07;7.07;;;;;;;;;;5009536;28;20186;-73
2021/11/23 03:19:47;;;;;;;17.80;7.60;;;;;;;;;;5003548;28;20202;-73
2021/11/23 03:22:13;;;;;;;11.73;7.10;;;;;;;;;;4996755;28;20190;-73
2021/11/23 03:24:39;;;;;;;19.80;7.90;;;;;;;;;;5007571;28;20194;-73
2021/11/23 03:27:06;;;;;;;14.03;7.27;;;;;;;;;;5005257;28;20634;-73
2021/11/23 03:29:31;;;;;;;17.43;7.57;;;;;;;;;;5008799;28;20608;-73
2021/11/23 03:31:57;;;;;;;13.80;7.37;;;;;;;;;;4995892;28;20285;-72
2021/11/23 03:34:23;;;;;;;20.87;7.87;;;;;;;;;;5015175;28;20186;-72
2021/11/23 03:36:49;;;;;;;19.70;7.13;;;;;;;;;;5001655;28;20613;-72
2021/11/23 03:39:15;;;;;;;20.37;7.70;;;;;;;;;;5003987;28;20655;-72
2021/11/23 03:41:41;;;;;;;31.97;8.53;;;;;;;;;;4993670;28;20187;-72
2021/11/23 03:44:07;;;;;;;15.63;7.73;;;;;;;;;;5003544;28;20237;-72
2021/11/23 03:46:33;;;;;;;20.87;7.93;;;;;;;;;;5007408;28;20194;-72
2021/11/23 03:48:59;;;;;;;15.07;7.80;;;;;;;;;;4997699;28;20198;-70
2021/11/23 03:51:24;;;;;;;18.77;8.63;;;;;;;;;;5006764;28;20187;-71
2021/11/23 03:53:50;;;;;;;16.17;7.83;;;;;;;;;;4998674;28;20268;-71
2021/11/23 03:56:15;;;;;;;22.17;8.00;;;;;;;;;;5009887;28;20226;-71
2021/11/23 03:58:41;;;;;;;22.80;8.63;;;;;;;;;;4997737;28;20193;-71
2021/11/23 04:01:07;;;;;;;15.00;6.90;;;;;;;;;;5006943;28;20199;-70
2021/11/23 04:03:34;;;;;;;15.87;7.93;;;;;;;;;;5000348;28;20192;-71
2021/11/23 04:05:59;;;;;;;18.73;7.63;;;;;;;;;;5006496;28;20687;-70
2021/11/23 04:08:25;;;;;;;20.47;8.77;;;;;;;;;;5002406;28;20213;-70
2021/11/23 04:10:50;;;;;;;20.93;7.40;;;;;;;;;;5004929;28;20186;-70
2021/11/23 04:13:18;;;;;;;17.23;7.80;;;;;;;;;;4991849;28;20210;-70
2021/11/23 04:15:44;;;;;;;20.70;7.53;;;;;;;;;;5011034;28;20190;-70
2021/11/23 04:18:09;;;;;;;25.00;7.63;;;;;;;;;;5016486;28;20677;-70
2021/11/23 04:20:35;;;;;;;20.43;7.63;;;;;;;;;;4998859;28;20179;-70
2021/11/23 04:23:00;;;;;;;13.37;7.50;;;;;;;;;;5013119;28;20294;-70
2021/11/23 04:25:25;;;;;;;16.63;6.40;;;;;;;;;;4998446;28;20241;-70
2021/11/23 04:27:52;;;;;;;17.53;7.83;;;;;;;;;;5006630;28;20203;-69
2021/11/23 04:30:18;;;;;;;14.13;7.17;;;;;;;;;;5000694;28;20226;-70
2021/11/23 04:32:43;;;;;;;13.27;8.00;;;;;;;;;;5009405;28;20630;-70
2021/11/23 04:35:09;;;;;;;22.90;7.83;;;;;;;;;;4999110;28;20643;-69
2021/11/23 04:37:35;;;;;;;16.60;7.80;;;;;;;;;;4999957;28;20194;-69
2021/11/23 04:40:05;;;;;;;24.23;9.13;;;;;;;;;;4998749;28;20269;-69
2021/11/23 04:42:31;;;;;;;22.50;8.00;;;;;;;;;;5005327;28;20395;-70
2021/11/23 04:44:57;;;;;;;22.33;8.20;;;;;;;;;;4994688;28;20302;-70
2021/11/23 04:47:22;;;;;;;11.57;7.80;;;;;;;;;;5008417;28;20207;-70
2021/11/23 04:49:47;;;;;;;24.97;8.17;;;;;;;;;;5011765;28;20277;-70
2021/11/23 04:52:13;;;;;;;20.80;9.20;;;;;;;;;;5000950;28;20189;-69
2021/11/23 04:54:38;;;;;;;23.03;9.10;;;;;;;;;;5001799;28;20183;-69
2021/11/23 04:57:05;;;;;;;27.23;8.53;;;;;;;;;;5000111;28;20222;-70
2021/11/23 04:59:30;;;;;;;29.87;10.07;;;;;;;;;;5015337;28;20672;-70
2021/11/23 05:01:56;;;;;;;20.00;9.13;;;;;;;;;;4999897;28;20187;-69
2021/11/23 05:04:21;;;;;;;23.10;8.90;;;;;;;;;;5008009;28;20182;-69
2021/11/23 05:06:47;;;;;;;35.53;9.40;;;;;;;;;;4996768;28;20272;-69
2021/11/23 05:09:12;;;;;;;21.10;9.13;;;;;;;;;;5013580;28;20201;-69
2021/11/23 05:11:40;;;;;;;23.87;9.73;;;;;;;;;;4995564;28;20194;-69
2021/11/23 05:14:05;;;;;;;22.73;9.90;;;;;;;;;;5000610;28;20183;-69
2021/11/23 05:16:31;;;;;;;24.23;9.90;;;;;;;;;;4993500;28;20213;-69
2021/11/23 05:18:56;;;;;;;22.00;10.37;;;;;;;;;;5004175;28;20187;-69
2021/11/23 05:21:22;;;;;;;21.70;9.67;;;;;;;;;;5002549;28;20288;-69
2021/11/23 05:23:47;;;;;;;20.07;9.40;;;;;;;;;;4996651;28;20187;-69
2021/11/23 05:26:12;;;;;;;28.20;10.40;;;;;;;;;;5000973;28;20207;-70
2021/11/23 05:28:38;;;;;;;24.40;11.13;;;;;;;;;;4993971;28;20210;-70
2021/11/23 05:31:03;;;;;;;27.17;10.27;;;;;;;;;;5004557;28;20197;-70
2021/11/23 05:33:28;;;;;;;25.63;10.20;;;;;;;;;;4997065;28;20282;-71
2021/11/23 05:35:54;;;;;;;17.83;9.37;;;;;;;;;;5005695;28;20184;-71
2021/11/23 05:38:20;;;;;;;23.93;10.07;;;;;;;;;;4997093;28;20214;-75
2021/11/23 05:40:47;;;;;;;23.60;10.13;;;;;;;;;;5001834;28;20646;-75
2021/11/23 05:43:14;;;;;;;23.40;9.77;;;;;;;;;;4991743;28;20186;-75
2021/11/23 05:45:40;;;;;;;24.33;11.07;;;;;;;;;;5005835;28;20286;-75
2021/11/23 05:48:05;;;;;;;21.20;10.40;;;;;;;;;;4996544;28;20206;-74
2021/11/23 05:50:31;;;;;;;20.00;10.73;;;;;;;;;;5006723;28;20241;-75
2021/11/23 05:52:57;;;;;;;17.60;9.40;;;;;;;;;;5003335;28;20716;-74
2021/11/23 05:55:22;;;;;;;21.97;9.60;;;;;;;;;;4995288;28;20298;-72
2021/11/23 05:57:47;;;;;;;21.23;10.33;;;;;;;;;;5003589;28;20183;-71
2021/11/23 06:00:13;;;;;;;25.97;9.73;;;;;;;;;;4993690;28;20190;-71
2021/11/23 06:02:38;;;;;;;23.47;9.63;;;;;;;;;;5007574;28;20688;-71
2021/11/23 06:05:04;;;;;;;22.17;10.47;;;;;;;;;;4994383;28;20180;-71
2021/11/23 06:07:30;;;;;;;21.67;10.43;;;;;;;;;;5000797;28;20238;-71
2021/11/23 06:09:55;;;;;;;23.73;11.00;;;;;;;;;;4998214;28;20222;-71
2021/11/23 06:12:21;;;;;;;27.03;10.37;;;;;;;;;;5003939;28;20187;-71
2021/11/23 06:14:47;;;;;;;21.43;10.93;;;;;;;;;;4997083;28;20615;-71
2021/11/23 06:17:13;;;;;;;21.47;10.10;;;;;;;;;;5003167;28;20187;-71
2021/11/23 06:19:38;;;;;;;20.13;10.37;;;;;;;;;;4304239;28;10000727;-71
2021/11/23 06:22:05;;;;;;;20.50;9.17;;;;;;;;;;5004442;28;20287;-71
2021/11/23 06:24:31;;;;;;;21.23;9.93;;;;;;;;;;5002532;28;20672;-70
2021/11/23 06:26:56;;;;;;;19.20;10.00;;;;;;;;;;4995741;28;20273;-70
2021/11/23 06:29:22;;;;;;;25.53;9.90;;;;;;;;;;5008174;28;20242;-70
2021/11/23 06:31:47;;;;;;;22.07;9.50;;;;;;;;;;4992567;28;20654;-70
2021/11/23 06:34:12;;;;;;;20.83;9.33;;;;;;;;;;5004833;28;20284;-70
2021/11/23 06:36:38;;;;;;;26.20;9.40;;;;;;;;;;4992264;28;20190;-70
2021/11/23 06:39:04;;;;;;;17.17;9.93;;;;;;;;;;5002917;28;20263;-70
2021/11/23 06:41:30;;;;;;;18.17;9.60;;;;;;;;;;5000012;28;20195;-70
2021/11/23 06:43:55;;;;;;;24.43;9.53;;;;;;;;;;5002034;28;20627;-70
2021/11/23 06:46:22;;;;;;;30.57;9.07;;;;;;;;;;4996756;28;20313;-70
2021/11/23 06:48:47;;;;;;;25.93;9.53;;;;;;;;;;5007279;28;20543;-70
2021/11/23 06:51:13;;;;;;;23.27;9.83;;;;;;;;;;4996311;28;20424;-70
2021/11/23 06:53:38;;;;;;;23.63;10.10;;;;;;;;;;5000806;28;20190;-70
2021/11/23 06:56:04;;;;;;;19.87;9.80;;;;;;;;;;5005991;28;20221;-70
2021/11/23 06:58:29;;;;;;;15.77;8.20;;;;;;;;;;4999136;28;20679;-70
2021/11/23 07:00:54;;;;;;;22.20;9.30;;;;;;;;;;5003300;28;20190;-70
2021/11/23 07:03:20;;;;;;;22.83;10.03;;;;;;;;;;4997332;28;20298;-70
2021/11/23 07:05:45;;;;;;;22.63;9.03;;;;;;;;;;5004546;28;20356;-70
2021/11/23 07:08:10;;;;;;;22.25;9.68;;;;;;;;;;4994105;28;20590;-70
2021/11/23 07:10:36;;;;;;;22.90;9.33;;;;;;;;;;5005195;28;20218;-70
2021/11/23 07:13:02;;;;;;;18.20;9.07;;;;;;;;;;4996080;28;20187;-70
2021/11/23 07:15:27;;;;;;;18.43;9.77;;;;;;;;;;5002659;28;20282;-70
2021/11/23 07:17:53;;;;;;;19.45;9.32;;;;;;;;;;4998221;28;21037;-70
2021/11/23 07:20:18;;;;;;;20.40;9.83;;;;;;;;;;5003767;28;20546;-69
2021/11/23 07:22:45;;;;;;;19.80;9.63;;;;;;;;;;5001644;28;20210;-69
2021/11/23 07:25:10;;;;;;;22.67;9.97;;;;;;;;;;4999332;28;20186;-70
2021/11/23 07:27:36;;;;;;;24.80;10.93;;;;;;;;;;5001652;28;20199;-70
2021/11/23 07:30:05;;;;;;;24.33;10.23;;;;;;;;;;4999572;28;20194;-70
2021/11/23 07:32:30;;;;;;;25.67;10.07;;;;;;;;;;5005843;28;20202;-70
2021/11/23 07:34:56;;;;;;;23.70;9.87;;;;;;;;;;4998627;28;20655;-70
2021/11/23 07:37:21;;;;;;;26.73;10.27;;;;;;;;;;5005004;28;20736;-70
2021/11/23 07:39:47;;;;;;;22.17;9.87;;;;;;;;;;4999833;28;20215;-70
2021/11/23 07:42:13;;;;;;;22.53;10.20;;;;;;;;;;5001537;28;20245;-70
2021/11/23 07:44:38;;;;;;;24.87;11.00;;;;;;;;;;4998346;28;20729;-70
2021/11/23 07:47:04;;;;;;;21.85;10.45;;;;;;;;;;5007727;28;20221;-70
2021/11/23 07:49:29;;;;;;;20.63;11.27;;;;;;;;;;4998055;28;20634;-70
2021/11/23 07:51:54;;;;;;;27.73;11.77;;;;;;;;;;5004962;28;20198;-70
2021/11/23 07:54:20;;;;;;;23.57;11.37;;;;;;;;;;5004232;28;20210;-70
2021/11/23 07:56:45;;;;;;;24.30;11.43;;;;;;;;;;5000850;28;20678;-70
2021/11/23 07:59:12;;;;;;;22.57;11.50;;;;;;;;;;5008235;28;20584;-70
2021/11/23 08:01:38;;;;;;;26.73;12.07;;;;;;;;;;4997797;28;20193;-70
2021/11/23 08:04:04;;;;;;;30.07;11.93;;;;;;;;;;5006857;28;20186;-70
2021/11/23 08:06:29;;;;;;;22.30;11.57;;;;;;;;;;4996424;28;20670;-70
2021/11/23 08:08:54;;;;;;;20.77;11.10;;;;;;;;;;5010453;28;20973;-70
2021/11/23 08:11:20;;;;;;;24.27;12.25;;;;;;;;;;4999937;28;20596;-71
2021/11/23 08:13:45;;;;;;;28.77;12.73;;;;;;;;;;5007925;28;20193;-71
2021/11/23 08:16:11;;;;;;;37.83;11.70;;;;;;;;;;5004403;28;20254;-71
2021/11/23 08:18:36;;;;;;;27.10;11.87;;;;;;;;;;5014211;28;20206;-70
2021/11/23 08:21:03;;;;;;;27.80;10.50;;;;;;;;;;4998958;28;20214;-70
2021/11/23 08:23:28;;;;;;;27.43;11.67;;;;;;;;;;5010110;28;20237;-70
2021/11/23 08:25:55;;;;;;;29.27;12.13;;;;;;;;;;5015960;28;20248;-70
2021/11/23 08:28:23;;;;;;;43.50;12.35;;;;;;;;;;4996324;28;20698;-70
2021/11/23 08:30:50;;;;;;;52.27;13.07;;;;;;;;;;5006118;28;20195;-70
2021/11/23 08:33:15;;;;;;;49.97;11.73;;;;;;;;;;4997978;28;20206;-70
2021/11/23 08:35:40;;;;;;;61.37;13.37;;;;;;;;;;5009957;28;20633;-70
2021/11/23 08:38:06;;;;;;;63.33;12.80;;;;;;;;;;4999365;28;20174;-70
2021/11/23 08:40:31;;;;;;;58.60;12.87;;;;;;;;;;5013787;28;20198;-70
2021/11/23 08:42:58;;;;;;;55.17;12.27;;;;;;;;;;5003461;28;20198;-70
2021/11/23 08:45:24;;;;;;;63.40;12.80;;;;;;;;;;5016840;28;20231;-70
2021/11/23 08:47:50;;;;;;;82.87;12.03;;;;;;;;;;5001055;28;20206;-70
2021/11/23 08:50:16;;;;;;;79.97;12.33;;;;;;;;;;5012591;28;20178;-70
2021/11/23 08:52:42;;;;;;;80.00;10.45;;;;;;;;;;4997599;28;20186;-70
2021/11/23 08:55:07;;;;;;;118.53;13.63;;;;;;;;;;5020794;28;20630;-70
2021/11/23 08:57:33;;;;;;;78.33;10.80;;;;;;;;;;5008485;28;20194;-70
2021/11/23 09:00:32;;;;;;;54.27;9.87;;;;;;;;;;5004399;28;20230;-70
2021/11/23 09:02:53;;;;;;;40.17;10.13;;;;;;;;;;5005770;28;20226;-70
2021/11/23 09:05:21;;;;;;;51.13;10.40;;;;;;;;;;5010343;28;20353;-70
2021/11/23 09:07:47;;;;;;;48.97;10.90;;;;;;;;;;5009916;28;20201;-70
2021/11/23 09:10:18;;;;;;;49.10;10.40;;;;;;;;;;5001125;28;20213;-70
2021/11/23 09:12:44;;;;;;;32.27;9.40;;;;;;;;;;5012969;28;20182;-70
2021/11/23 09:15:10;;;;;;;30.27;9.73;;;;;;;;;;5003084;28;20241;-70
2021/11/23 09:17:35;;;;;;;33.58;9.63;;;;;;;;;;5012645;28;23026;-70
2021/11/23 09:20:00;;;;;;;39.07;10.63;;;;;;;;;;5005309;28;20205;-70
2021/11/23 09:22:27;;;;;;;31.10;10.52;;;;;;;;;;5013707;28;20221;-70
2021/11/23 09:24:52;;;;;;;29.73;10.05;;;;;;;;;;5004251;28;20192;-70
2021/11/23 09:27:18;;;;;;;24.17;10.30;;;;;;;;;;5015286;28;20713;-69
2021/11/23 09:29:43;;;;;;;32.55;10.10;;;;;;;;;;4998920;28;20186;-70
2021/11/23 09:32:08;;;;;;;24.45;9.35;;;;;;;;;;5013699;28;20274;-70
2021/11/23 09:34:34;;;;;;;28.17;9.68;;;;;;;;;;4998941;28;20595;-69
2021/11/23 09:36:59;;;;;;;23.88;9.32;;;;;;;;;;5008843;28;20610;-69
2021/11/23 09:39:25;;;;;;;24.73;9.45;;;;;;;;;;5007649;28;20266;-69
2021/11/23 09:41:51;;;;;;;15.73;8.80;;;;;;;;;;5005883;28;20186;-70
2021/11/23 09:44:17;;;;;;;17.33;7.60;;;;;;;;;;5005653;28;20199;-70
2021/11/23 09:46:42;;;;;;;14.93;7.47;;;;;;;;;;5011359;28;20577;-70
2021/11/23 09:49:08;;;;;;;19.13;8.02;;;;;;;;;;5006492;28;20242;-70
2021/11/23 09:51:35;;;;;;;19.42;7.63;;;;;;;;;;5008734;28;20579;-70
2021/11/23 09:54:04;;;;;;;19.33;8.47;;;;;;;;;;5010817;28;20278;-70
2021/11/23 09:56:31;;;;;;;20.23;7.90;;;;;;;;;;5002289;28;20210;-70
2021/11/23 09:58:57;;;;;;;20.05;7.88;;;;;;;;;;5009542;28;20189;-70
2021/11/23 10:01:26;;;;;;;18.98;8.32;;;;;;;;;;5006924;28;20202;-70
2021/11/23 10:03:53;;;;;;;21.90;9.13;;;;;;;;;;5008107;28;20187;-70
2021/11/23 10:06:22;;;;;;;14.32;8.20;;;;;;;;;;5003951;28;20301;-70
2021/11/23 10:08:50;;;;;;;16.90;7.88;;;;;;;;;;5013259;28;20202;-70
2021/11/23 10:11:25;;;;;;;14.73;7.07;;;;;;;;;;5010006;28;20323;-70
2021/11/23 10:13:53;;;;;;;17.23;7.30;;;;;;;;;;5020067;28;20186;-70
2021/11/23 10:16:20;;;;;;;13.32;6.32;;;;;;;;;;5016330;28;20186;-70
2021/11/23 10:18:49;;;;;;;13.02;5.97;;;;;;;;;;5001196;28;20310;-70
2021/11/23 10:21:16;;;;;;;16.58;5.68;;;;;;;;;;5010048;28;20685;-70
2021/11/23 10:23:52;;;;;;;13.95;6.10;;;;;;;;;;5001931;28;20269;-70
2021/11/23 10:26:21;;;;;;;13.15;5.35;;;;;;;;;;5010509;28;20527;-70
2021/11/23 10:28:54;;;;;;;10.57;5.03;;;;;;;;;;4997434;28;20634;-70
2021/11/23 10:31:21;;;;;;;12.52;6.03;;;;;;;;;;5020918;28;20273;-70
2021/11/23 10:33:58;;;;;;;12.10;5.85;;;;;;;;;;4997910;28;20201;-70
2021/11/23 10:36:29;;;;;;;13.85;5.50;;;;;;;;;;5009361;28;20201;-70
2021/11/23 10:39:11;;;;;;;10.18;5.38;;;;;;;;;;5001562;28;20179;-70
2021/11/23 10:41:38;;;;;;;7.93;5.15;;;;;;;;;;5001869;28;20187;-70
2021/11/23 10:44:06;;;;;;;10.35;5.22;;;;;;;;;;5005932;28;20202;-70
2021/11/23 10:46:32;;;;;;;11.43;5.05;;;;;;;;;;5011070;28;20251;-71
2021/11/23 10:49:00;;;;;;;15.07;5.63;;;;;;;;;;5005553;28;20203;-70
2021/11/23 10:51:35;;;;;;;10.18;4.85;;;;;;;;;;5009804;28;20305;-70
2021/11/23 10:54:17;;;;;;;12.30;4.63;;;;;;;;;;5000704;28;20190;-70
2021/11/23 10:57:05;;;;;;;9.85;4.53;;;;;;;;;;5011367;28;20233;-70
2021/11/23 10:59:31;;;;;;;7.88;4.50;;;;;;;;;;4999148;28;20202;-70
2021/11/23 11:01:57;;;;;;;16.05;5.18;;;;;;;;;;5005255;28;20175;-71
2021/11/23 11:04:26;;;;;;;7.93;4.80;;;;;;;;;;5000522;28;20228;-71
2021/11/23 11:06:52;;;;;;;7.72;4.55;;;;;;;;;;5014341;28;20235;-70
2021/11/23 11:09:18;;;;;;;8.93;4.28;;;;;;;;;;4999254;28;20210;-70
2021/11/23 11:11:44;;;;;;;7.93;4.38;;;;;;;;;;5007573;28;20631;-70
2021/11/23 11:14:12;;;;;;;8.23;3.90;;;;;;;;;;5007098;28;20195;-70
2021/11/23 11:16:39;;;;;;;9.65;3.05;;;;;;;;;;5003339;28;20226;-70
2021/11/23 11:19:07;;;;;;;5.70;2.78;;;;;;;;;;5007178;28;20537;-70
2021/11/23 11:21:41;;;;;;;6.15;2.13;;;;;;;;;;4996041;28;20752;-70
2021/11/23 11:24:34;;;;;;;5.90;2.10;;;;;;;;;;5004778;28;20231;-71
2021/11/23 11:27:16;;;;;;;3.85;1.98;;;;;;;;;;5002056;28;20553;-71
2021/11/23 11:29:42;;;;;;;9.55;2.35;;;;;;;;;;5015002;28;20187;-70
2021/11/23 11:32:32;;;;;;;4.70;2.10;;;;;;;;;;4999911;28;20194;-70
2021/11/23 11:35:23;;;;;;;6.70;2.40;;;;;;;;;;5012846;28;20191;-71
2021/11/23 11:37:49;;;;;;;8.93;2.72;;;;;;;;;;4998606;28;20199;-71
2021/11/23 11:40:42;;;;;;;9.57;2.28;;;;;;;;;;5005908;28;20198;-71
2021/11/23 11:43:09;;;;;;;12.15;2.78;;;;;;;;;;5012469;28;20170;-70
2021/11/23 11:45:50;;;;;;;6.65;2.10;;;;;;;;;;5010203;28;20605;-71
2021/11/23 11:48:31;;;;;;;7.60;2.38;;;;;;;;;;5006369;28;20209;-71
2021/11/23 11:51:08;;;;;;;8.73;1.85;;;;;;;;;;5012265;28;20297;-71
2021/11/23 11:53:48;;;;;;;9.95;2.42;;;;;;;;;;5005534;28;20195;-71
2021/11/23 11:56:35;;;;;;;5.47;1.88;;;;;;;;;;5009009;28;20210;-71
2021/11/23 11:59:02;;;;;;;7.22;1.25;;;;;;;;;;5005792;28;20191;-71
2021/11/23 12:01:38;;;;;;;3.50;1.10;;;;;;;;;;5012842;28;20186;-70
2021/11/23 12:04:11;;;;;;;6.65;1.60;;;;;;;;;;5005089;28;20220;-70
2021/11/23 12:06:55;;;;;;;5.40;1.23;;;;;;;;;;5010333;28;20714;-70
2021/11/23 12:09:37;;;;;;;4.13;0.90;;;;;;;;;;5000018;28;20218;-70
2021/11/23 12:12:11;;;;;;;5.05;1.13;;;;;;;;;;5015016;28;20194;-70
2021/11/23 12:14:50;;;;;;;7.88;1.20;;;;;;;;;;5000382;28;20189;-71
2021/11/23 12:17:28;;;;;;;7.80;2.20;;;;;;;;;;5009823;28;20652;-71
2021/11/23 12:20:21;;;;;;;9.20;1.77;;;;;;;;;;4997098;28;20218;-71
2021/11/23 12:22:48;;;;;;;5.00;1.10;;;;;;;;;;5006445;28;20202;-71
2021/11/23 12:25:21;;;;;;;6.68;1.00;;;;;;;;;;4994082;28;20204;-71
2021/11/23 12:27:48;;;;;;;8.23;2.17;;;;;;;;;;5005208;28;20836;-71
2021/11/23 12:30:19;;;;;;;7.63;1.13;;;;;;;;;;4992380;28;20318;-71
2021/11/23 12:32:45;;;;;;;6.28;1.00;;;;;;;;;;5000819;28;20277;-71
2021/11/23 12:35:15;;;;;;;8.50;1.40;;;;;;;;;;4999978;28;20373;-71
2021/11/23 12:37:44;;;;;;;8.07;1.40;;;;;;;;;;5002087;28;20190;-71
2021/11/23 12:40:23;;;;;;;9.80;1.38;;;;;;;;;;5006132;28;20193;-71
2021/11/23 12:42:54;;;;;;;5.43;1.15;;;;;;;;;;5005618;28;20221;-71
2021/11/23 12:45:26;;;;;;;4.95;1.23;;;;;;;;;;5006910;28;20185;-71
2021/11/23 12:47:52;;;;;;;4.45;1.30;;;;;;;;;;5009462;28;20207;-70
2021/11/23 12:50:18;;;;;;;6.65;1.13;;;;;;;;;;5005214;28;20186;-70
2021/11/23 12:52:45;;;;;;;8.45;1.35;;;;;;;;;;5012666;28;20284;-71
2021/11/23 12:55:12;;;;;;;7.78;1.23;;;;;;;;;;5002198;28;20210;-71
2021/11/23 12:57:38;;;;;;;5.10;0.90;;;;;;;;;;5008884;28;20178;-70
2021/11/23 13:00:06;;;;;;;6.30;1.40;;;;;;;;;;5002754;28;20210;-70
2021/11/23 13:02:38;;;;;;;4.63;1.17;;;;;;;;;;5011267;28;20219;-70
2021/11/23 13:05:24;;;;;;;5.32;1.27;;;;;;;;;;5010404;28;21227;-70
2021/11/23 13:07:53;;;;;;;7.68;1.75;;;;;;;;;;5010699;28;20228;-70
2021/11/23 13:10:29;;;;;;;8.15;1.27;;;;;;;;;;5007208;28;20232;-70
2021/11/23 13:13:09;;;;;;;2.88;1.20;;;;;;;;;;5004750;28;20209;-70
2021/11/23 13:15:36;;;;;;;7.05;1.10;;;;;;;;;;5008470;28;20617;-71
2021/11/23 13:18:09;;;;;;;4.07;0.98;;;;;;;;;;5007770;28;20201;-70
2021/11/23 13:20:45;;;;;;;3.70;0.98;;;;;;;;;;5004505;28;20594;-70
2021/11/23 13:23:23;;;;;;;4.35;0.70;;;;;;;;;;5002347;28;20213;-70
2021/11/23 13:26:10;;;;;;;3.20;1.02;;;;;;;;;;5008343;28;20186;-70
2021/11/23 13:28:45;;;;;;;3.45;0.95;;;;;;;;;;5004538;28;20376;-71
2021/11/23 13:31:18;;;;;;;3.03;0.90;;;;;;;;;;5013488;28;20297;-70
2021/11/23 13:33:47;;;;;;;3.65;0.70;;;;;;;;;;4998252;28;20186;-70
2021/11/23 13:36:17;;;;;;;3.75;0.70;;;;;;;;;;5014529;28;20190;-70
2021/11/23 13:38:44;;;;;;;2.97;0.82;;;;;;;;;;5001651;28;20186;-71
2021/11/23 13:41:22;;;;;;;4.75;0.60;;;;;;;;;;5008453;28;20702;-71
2021/11/23 13:43:53;;;;;;;6.22;0.80;;;;;;;;;;4994662;28;20182;-71
2021/11/23 13:46:19;;;;;;;2.67;0.40;;;;;;;;;;5007383;28;20209;-70
2021/11/23 13:48:58;;;;;;;3.47;0.88;;;;;;;;;;4997566;28;20670;-70
2021/11/23 13:51:24;;;;;;;1.77;0.40;;;;;;;;;;5011898;28;20853;-70
2021/11/23 13:53:59;;;;;;;4.43;0.60;;;;;;;;;;4997526;28;20277;-70
2021/11/23 13:56:29;;;;;;;6.72;0.57;;;;;;;;;;5009431;28;20201;-71
2021/11/23 13:58:57;;;;;;;6.20;0.88;;;;;;;;;;4995489;28;20175;-71
2021/11/23 14:01:23;;;;;;;3.42;0.73;;;;;;;;;;5012484;28;20670;-71
2021/11/23 14:04:24;;;;;;;3.97;0.90;;;;;;;;;;4996840;28;20317;-71
2021/11/23 14:07:04;;;;;;;3.45;0.68;;;;;;;;;;5004749;28;21716;-71
2021/11/23 14:09:46;;;;;;;3.83;0.98;;;;;;;;;;4995996;28;20198;-71
2021/11/23 14:12:26;;;;;;;3.03;0.50;;;;;;;;;;5004799;28;20523;-71
2021/11/23 14:15:13;;;;;;;5.30;0.75;;;;;;;;;;5000704;28;20207;-70
2021/11/23 14:17:57;;;;;;;3.03;0.75;;;;;;;;;;5002266;28;20182;-70
2021/11/23 14:20:33;;;;;;;4.90;0.60;;;;;;;;;;4985758;28;20443;-71
2021/11/23 14:23:06;;;;;;;2.45;0.47;;;;;;;;;;5018800;28;20179;-71
2021/11/23 14:25:33;;;;;;;3.05;0.50;;;;;;;;;;4994689;28;20640;-71
2021/11/23 14:28:00;;;;;;;4.85;0.50;;;;;;;;;;5002464;28;20313;-71
2021/11/23 14:30:26;;;;;;;6.30;0.65;;;;;;;;;;4995914;28;20191;-71
2021/11/23 14:32:52;;;;;;;7.45;0.70;;;;;;;;;;5006423;28;20195;-71
2021/11/23 14:35:18;;;;;;;5.82;0.93;;;;;;;;;;4998727;28;20191;-71
2021/11/23 14:37:43;;;;;;;5.30;0.75;;;;;;;;;;5006345;28;20502;-71